Time;durP1;ratioP1;P1;durP2;ratioP2;P2;SDS_P1;SDS_P2;PMS_P1;PMS_P2;Temp;Humidity;BMP_temperature;BMP_pressure;BME280_temperature;BME280_humidity;BME280_pressure;Samples;Min_cycle;Max_cycle;Signal;HPM_P1;HPM_P2
2022/04/16 00:01:03;;;;;;;22.52;16.45;;;9.50;99.90;;;;;;5071147;28;20219;-76
2022/04/16 00:03:31;;;;;;;25.70;17.73;;;9.40;99.90;;;;;;5061519;28;20215;-78
2022/04/16 00:05:59;;;;;;;28.15;17.15;;;9.40;99.90;;;;;;5059479;28;20226;-75
2022/04/16 00:08:28;;;;;;;29.67;17.52;;;9.40;99.90;;;;;;5064497;28;20273;-76
2022/04/16 00:10:56;;;;;;;24.90;17.08;;;9.40;99.90;;;;;;5061139;28;20286;-76
2022/04/16 00:13:24;;;;;;;28.02;15.95;;;9.40;99.90;;;;;;5061494;28;20196;-76
2022/04/16 00:15:52;;;;;;;22.25;16.55;;;9.40;99.90;;;;;;5059709;28;20314;-76
2022/04/16 00:18:20;;;;;;;25.83;16.70;;;9.30;99.90;;;;;;5065811;28;20583;-77
2022/04/16 00:20:49;;;;;;;23.38;15.95;;;9.30;99.90;;;;;;5052205;28;20203;-75
2022/04/16 00:23:19;;;;;;;28.30;16.52;;;9.30;99.90;;;;;;5057497;28;20661;-75
2022/04/16 00:25:46;;;;;;;22.83;17.38;;;9.20;99.90;;;;;;5063088;28;20255;-75
2022/04/16 00:28:13;;;;;;;23.85;15.93;;;9.10;99.90;;;;;;5069534;28;20235;-75
2022/04/16 00:30:40;;;;;;;27.73;17.80;;;9.20;99.90;;;;;;5058275;28;20216;-76
2022/04/16 00:33:08;;;;;;;23.73;15.77;;;9.20;99.90;;;;;;5066003;28;20266;-75
2022/04/16 00:35:35;;;;;;;26.08;16.65;;;9.30;99.90;;;;;;5055265;28;20689;-76
2022/04/16 00:38:03;;;;;;;27.88;17.90;;;9.20;99.90;;;;;;5056511;28;20555;-76
2022/04/16 00:40:31;;;;;;;26.88;18.65;;;9.40;99.90;;;;;;5058317;28;20298;-77
2022/04/16 00:42:58;;;;;;;20.77;16.55;;;9.20;99.90;;;;;;5063771;28;20709;-77
2022/04/16 00:45:26;;;;;;;25.83;17.33;;;9.20;99.90;;;;;;5054599;28;20710;-76
2022/04/16 00:47:53;;;;;;;22.90;15.15;;;9.20;99.90;;;;;;5059092;28;20867;-75
2022/04/16 00:50:20;;;;;;;28.45;18.30;;;9.20;99.90;;;;;;5062533;28;20211;-76
2022/04/16 00:52:49;;;;;;;26.48;18.20;;;9.10;99.90;;;;;;5060916;28;20309;-77
2022/04/16 00:55:17;;;;;;;24.15;15.75;;;9.10;99.90;;;;;;5054930;28;20273;-76
2022/04/16 00:57:45;;;;;;;22.90;15.75;;;9.20;99.90;;;;;;5057893;28;20203;-77
2022/04/16 01:00:14;;;;;;;24.42;16.08;;;9.10;99.90;;;;;;5063109;28;20234;-75
2022/04/16 01:02:41;;;;;;;23.60;15.43;;;9.20;99.90;;;;;;5059354;28;20200;-76
2022/04/16 01:05:12;;;;;;;22.58;15.40;;;9.00;99.90;;;;;;5066250;28;20253;-74
2022/04/16 01:07:52;;;;;;;25.58;16.05;;;9.20;99.90;;;;;;5061100;28;20342;-75
2022/04/16 01:10:20;;;;;;;25.92;17.65;;;9.10;99.90;;;;;;5058031;28;20230;-75
2022/04/16 01:12:49;;;;;;;28.58;16.33;;;9.10;99.90;;;;;;5062837;28;20258;-76
2022/04/16 01:15:17;;;;;;;32.33;17.55;;;9.10;99.90;;;;;;5059311;28;20325;-76
2022/04/16 01:17:44;;;;;;;25.33;16.95;;;9.10;99.90;;;;;;5069342;28;20657;-76
2022/04/16 01:20:11;;;;;;;26.65;17.02;;;9.10;99.90;;;;;;5057431;28;20290;-76
2022/04/16 01:22:40;;;;;;;22.13;16.35;;;9.10;99.90;;;;;;5058261;28;20191;-75
2022/04/16 01:25:08;;;;;;;21.48;16.55;;;9.10;99.90;;;;;;5072375;28;20254;-76
2022/04/16 01:27:36;;;;;;;27.55;17.63;;;8.90;99.90;;;;;;5059803;28;20567;-75
2022/04/16 01:30:04;;;;;;;27.90;15.85;;;9.10;99.90;;;;;;5060759;28;20629;-76
2022/04/16 01:32:33;;;;;;;27.90;17.83;;;9.10;99.90;;;;;;5064585;28;20231;-76
2022/04/16 01:35:00;;;;;;;31.45;17.55;;;9.00;99.90;;;;;;5061751;28;20234;-76
2022/04/16 01:37:35;;;;;;;18.58;12.75;;;9.00;99.90;;;;;;5053982;28;20230;-76
2022/04/16 01:40:05;;;;;;;20.80;13.80;;;9.00;99.90;;;;;;5055676;28;20207;-75
2022/04/16 01:42:32;;;;;;;20.92;12.55;;;8.90;99.90;;;;;;5059683;28;20203;-75
2022/04/16 01:45:01;;;;;;;15.30;11.13;;;8.80;99.90;;;;;;5053913;28;20583;-76
2022/04/16 01:47:28;;;;;;;18.45;11.32;;;8.80;99.90;;;;;;5059300;28;20202;-76
2022/04/16 01:49:56;;;;;;;15.77;10.10;;;8.70;99.90;;;;;;5054105;28;20210;-76
2022/04/16 01:52:23;;;;;;;16.65;11.23;;;8.60;99.90;;;;;;5066768;28;20223;-75
2022/04/16 01:54:50;;;;;;;16.58;11.20;;;8.60;99.90;;;;;;5058321;28;20258;-76
2022/04/16 01:57:19;;;;;;;19.50;10.82;;;8.50;99.90;;;;;;5061855;28;20204;-75
2022/04/16 01:59:46;;;;;;;13.55;10.00;;;8.50;99.90;;;;;;5059520;28;20260;-76
2022/04/16 02:02:13;;;;;;;16.90;10.25;;;8.40;99.90;;;;;;5060243;28;20214;-76
2022/04/16 02:04:40;;;;;;;13.68;10.07;;;8.30;99.90;;;;;;5059693;28;20313;-75
2022/04/16 02:07:07;;;;;;;16.25;9.05;;;8.30;99.90;;;;;;5059220;28;20204;-75
2022/04/16 02:09:34;;;;;;;14.30;9.57;;;8.20;99.90;;;;;;5069260;28;20197;-75
2022/04/16 02:12:01;;;;;;;15.82;9.40;;;8.20;99.90;;;;;;5068408;28;20293;-75
2022/04/16 02:14:30;;;;;;;16.40;8.57;;;8.10;99.90;;;;;;5057755;28;20250;-75
2022/04/16 02:16:59;;;;;;;16.48;10.05;;;8.00;99.90;;;;;;5054197;28;20198;-75
2022/04/16 02:19:26;;;;;;;14.57;8.75;;;7.90;99.90;;;;;;5059974;28;20308;-74
2022/04/16 02:21:54;;;;;;;13.95;8.52;;;7.80;99.90;;;;;;5072798;28;20205;-75
2022/04/16 02:24:21;;;;;;;16.35;8.38;;;7.80;99.90;;;;;;5056358;28;20230;-74
2022/04/16 02:26:47;;;;;;;12.02;7.88;;;7.70;99.90;;;;;;5053366;28;20242;-76
2022/04/16 02:29:15;;;;;;;11.45;7.68;;;7.70;99.90;;;;;;5055608;28;20256;-74
2022/04/16 02:31:45;;;;;;;11.50;6.75;;;7.60;99.90;;;;;;5059561;28;20248;-75
2022/04/16 02:34:12;;;;;;;11.38;7.05;;;7.50;99.90;;;;;;5058387;28;20220;-75
2022/04/16 02:36:40;;;;;;;11.32;5.88;;;7.40;99.90;;;;;;5056597;28;20205;-74
2022/04/16 02:39:08;;;;;;;8.45;6.28;;;7.40;99.90;;;;;;5062164;28;20565;-75
2022/04/16 02:41:35;;;;;;;7.15;5.47;;;7.30;99.90;;;;;;5057817;28;20228;-75
2022/04/16 02:44:02;;;;;;;8.07;5.47;;;7.00;99.90;;;;;;5056259;28;20224;-75
2022/04/16 02:49:15;;;;;;;8.32;5.78;;;7.10;99.90;;;;;;5053234;28;20224;-72
2022/04/16 02:51:43;;;;;;;8.68;5.43;;;7.10;99.90;;;;;;5052580;28;20201;-74
2022/04/16 02:54:10;;;;;;;6.40;4.65;;;7.10;99.90;;;;;;5052998;28;20231;-74
2022/04/16 02:56:37;;;;;;;10.70;6.13;;;7.10;99.90;;;;;;5053195;28;20189;-73
2022/04/16 02:59:04;;;;;;;9.75;5.68;;;7.00;99.90;;;;;;5053346;28;20284;-73
2022/04/16 03:01:31;;;;;;;8.10;5.18;;;7.00;99.90;;;;;;5052198;28;20295;-74
2022/04/16 03:03:58;;;;;;;12.65;6.10;;;6.80;99.90;;;;;;5052930;28;20307;-73
2022/04/16 03:06:27;;;;;;;6.07;4.47;;;6.80;99.90;;;;;;5052852;28;20235;-74
2022/04/16 03:08:54;;;;;;;6.20;4.10;;;6.70;99.90;;;;;;5052924;28;20286;-73
2022/04/16 03:11:21;;;;;;;4.72;3.85;;;6.70;99.90;;;;;;5052030;28;20296;-73
2022/04/16 03:13:48;;;;;;;6.30;4.75;;;6.70;99.90;;;;;;5052554;28;20215;-73
2022/04/16 03:18:59;;;;;;;6.85;3.97;;;6.60;99.90;;;;;;5050489;28;20195;-74
2022/04/16 03:21:28;;;;;;;7.10;4.55;;;6.60;99.90;;;;;;5052400;28;20211;-73
2022/04/16 03:23:54;;;;;;;5.72;4.38;;;6.60;99.90;;;;;;5052462;28;20188;-74
2022/04/16 03:26:21;;;;;;;12.88;5.07;;;6.40;99.90;;;;;;5052778;28;20296;-74
2022/04/16 03:28:49;;;;;;;7.07;5.25;;;6.50;99.90;;;;;;5053192;28;20295;-73
2022/04/16 03:31:16;;;;;;;9.65;5.60;;;6.50;99.90;;;;;;5062154;28;20207;-73
2022/04/16 03:33:42;;;;;;;8.82;4.68;;;6.50;99.90;;;;;;5051901;28;20307;-74
2022/04/16 03:36:09;;;;;;;6.18;4.45;;;6.50;99.90;;;;;;5056311;28;20565;-73
2022/04/16 03:38:37;;;;;;;7.35;5.05;;;6.40;99.90;;;;;;5052116;28;20298;-74
2022/04/16 03:41:05;;;;;;;8.93;5.80;;;6.30;99.90;;;;;;5058905;28;20213;-73
2022/04/16 03:43:32;;;;;;;5.20;4.22;;;6.30;99.90;;;;;;5052240;28;20678;-74
2022/04/16 03:45:59;;;;;;;6.25;3.55;;;6.20;99.90;;;;;;5059535;28;20223;-73
2022/04/16 03:48:26;;;;;;;9.90;3.90;;;6.10;99.90;;;;;;5053304;28;20206;-73
2022/04/16 03:50:53;;;;;;;9.48;3.83;;;6.00;99.90;;;;;;5055276;28;20626;-73
2022/04/16 03:53:20;;;;;;;4.55;3.35;;;6.00;99.90;;;;;;5051173;28;20251;-73
2022/04/16 04:01:17;;;;;;;5.40;2.53;;;5.90;99.90;;;;;;5060060;28;20227;-74
2022/04/16 04:03:46;;;;;;;3.03;2.70;;;5.80;99.90;;;;;;5062111;28;20204;-74
2022/04/16 04:06:14;;;;;;;2.97;2.13;;;5.70;99.90;;;;;;5061029;28;20203;-74
2022/04/16 04:08:41;;;;;;;4.28;2.47;;;5.60;99.90;;;;;;5059262;28;20207;-73
2022/04/16 04:11:10;;;;;;;5.40;2.85;;;5.60;99.90;;;;;;5063394;28;20198;-74
2022/04/16 04:13:37;;;;;;;3.97;2.53;;;5.50;99.90;;;;;;5055874;28;20235;-74
2022/04/16 04:16:05;;;;;;;4.97;3.00;;;5.60;99.90;;;;;;5063749;28;20203;-72
2022/04/16 04:18:32;;;;;;;4.05;2.70;;;5.50;99.90;;;;;;5060677;28;20238;-72
2022/04/16 04:20:58;;;;;;;7.57;3.03;;;5.50;99.90;;;;;;5064920;28;20278;-72
2022/04/16 04:23:26;;;;;;;6.88;1.95;;;5.40;99.90;;;;;;5055840;28;20741;-73
2022/04/16 04:25:53;;;;;;;4.72;2.03;;;5.40;99.90;;;;;;5066823;28;20693;-73
2022/04/16 04:28:22;;;;;;;3.28;2.20;;;5.40;99.90;;;;;;5058163;28;20673;-72
2022/04/16 04:30:48;;;;;;;2.88;1.95;;;5.30;99.90;;;;;;5063033;28;20243;-73
2022/04/16 04:33:17;;;;;;;2.97;2.00;;;5.30;99.90;;;;;;5055680;28;20290;-73
2022/04/16 04:35:44;;;;;;;4.75;2.55;;;5.20;99.90;;;;;;5057793;28;20643;-74
2022/04/16 04:38:11;;;;;;;2.90;2.10;;;5.30;99.90;;;;;;5065423;28;20290;-73
2022/04/16 04:40:39;;;;;;;5.68;3.05;;;5.30;99.90;;;;;;5061645;28;20209;-72
2022/04/16 04:43:06;;;;;;;2.50;1.63;;;5.30;99.90;;;;;;5057700;28;20196;-72
2022/04/16 04:45:34;;;;;;;2.50;1.70;;;5.20;99.90;;;;;;5062588;28;20298;-74
2022/04/16 04:48:01;;;;;;;2.90;1.48;;;5.20;99.90;;;;;;5059398;28;20207;-73
2022/04/16 04:50:28;;;;;;;2.63;1.85;;;5.30;99.90;;;;;;5058297;28;20202;-74
2022/04/16 04:52:55;;;;;;;1.65;1.35;;;5.30;99.90;;;;;;5057681;28;20230;-73
2022/04/16 04:55:22;;;;;;;2.53;2.25;;;5.30;99.90;;;;;;5062089;28;20712;-71
2022/04/16 04:57:54;;;;;;;2.85;1.73;;;5.30;99.90;;;;;;5061585;28;20200;-74
2022/04/16 05:00:20;;;;;;;4.63;1.70;;;5.30;99.90;;;;;;5061269;28;20212;-74
2022/04/16 05:02:49;;;;;;;3.25;1.60;;;5.30;99.90;;;;;;5058682;28;20646;-73
2022/04/16 05:05:16;;;;;;;2.05;1.60;;;5.30;99.90;;;;;;5057240;28;20249;-73
2022/04/16 05:07:43;;;;;;;4.80;1.73;;;5.30;99.90;;;;;;5058760;28;20583;-73
2022/04/16 05:10:11;;;;;;;2.42;1.60;;;5.30;99.90;;;;;;5057762;28;20226;-73
2022/04/16 05:12:38;;;;;;;2.30;1.70;;;5.40;99.90;;;;;;5060989;28;20211;-73
2022/04/16 05:15:07;;;;;;;2.65;1.60;;;5.50;99.90;;;;;;5056052;28;20587;-73
2022/04/16 05:17:36;;;;;;;2.40;1.45;;;5.60;99.90;;;;;;5054849;28;20203;-73
2022/04/16 05:20:06;;;;;;;1.60;1.50;;;5.70;99.90;;;;;;5055430;28;20195;-73
2022/04/16 05:22:33;;;;;;;4.20;1.55;;;5.70;99.90;;;;;;5058237;28;20270;-74
2022/04/16 05:25:00;;;;;;;4.90;2.65;;;5.90;99.90;;;;;;5060099;28;20756;-74
2022/04/16 05:27:27;;;;;;;2.10;1.30;;;6.30;99.90;;;;;;5054650;28;20201;-74
2022/04/16 05:30:11;;;;;;;1.92;1.35;;;7.10;99.90;;;;;;5053754;28;20735;-74
2022/04/16 05:32:40;;;;;;;2.55;1.52;;;7.90;99.90;;;;;;5053600;28;20321;-74
2022/04/16 05:35:10;;;;;;;1.58;1.15;;;9.00;99.90;;;;;;5054300;28;20232;-74
2022/04/16 05:37:38;;;;;;;2.30;1.33;;;10.00;99.90;;;;;;5061151;28;20199;-74
2022/04/16 05:40:06;;;;;;;2.53;1.85;;;10.80;99.30;;;;;;5055998;28;20246;-74
2022/04/16 05:42:33;;;;;;;2.55;1.27;;;11.50;97.10;;;;;;5057268;28;20246;-75
2022/04/16 05:45:01;;;;;;;1.83;1.10;;;12.20;94.80;;;;;;5065554;28;20700;-74
2022/04/16 05:47:28;;;;;;;2.88;1.23;;;12.40;92.30;;;;;;5059074;28;20213;-74
2022/04/16 05:49:55;;;;;;;1.90;1.48;;;12.40;92.20;;;;;;5053685;28;20210;-74
2022/04/16 05:52:23;;;;;;;2.30;1.33;;;12.80;92.20;;;;;;5060369;28;20309;-73
2022/04/16 05:54:51;;;;;;;3.30;1.20;;;13.30;91.20;;;;;;5058175;28;20249;-73
2022/04/16 05:57:19;;;;;;;1.85;1.20;;;13.90;89.60;;;;;;5053739;28;20210;-73
2022/04/16 05:59:46;;;;;;;2.95;1.85;;;14.30;87.20;;;;;;5053003;28;20655;-73
2022/04/16 06:02:13;;;;;;;3.60;1.83;;;15.00;85.90;;;;;;5056490;28;20210;-72
2022/04/16 06:04:40;;;;;;;6.20;2.50;;;14.80;82.30;;;;;;5061223;28;20686;-75
2022/04/16 06:07:07;;;;;;;4.80;1.60;;;14.80;83.40;;;;;;5060798;28;20341;-74
2022/04/16 06:09:35;;;;;;;3.42;1.13;;;15.10;83.50;;;;;;5055165;28;20204;-76
2022/04/16 06:12:03;;;;;;;3.72;1.73;;;15.20;82.30;;;;;;5063271;28;20657;-75
2022/04/16 06:14:30;;;;;;;2.50;1.50;;;15.60;81.00;;;;;;5055973;28;20634;-74
2022/04/16 06:16:57;;;;;;;2.55;1.40;;;15.90;79.10;;;;;;5053795;28;20215;-75
2022/04/16 06:19:24;;;;;;;2.70;1.50;;;15.80;78.90;;;;;;5058839;28;20240;-75
2022/04/16 06:21:51;;;;;;;3.10;1.48;;;15.50;79.10;;;;;;5058105;28;20218;-75
2022/04/16 06:24:19;;;;;;;2.17;1.25;;;15.40;79.60;;;;;;5058652;28;20231;-74
2022/04/16 06:26:48;;;;;;;1.60;1.30;;;15.50;79.30;;;;;;5053451;28;21081;-74
2022/04/16 06:29:15;;;;;;;2.47;1.42;;;15.60;79.20;;;;;;5055756;28;20292;-75
2022/04/16 06:31:43;;;;;;;2.35;1.50;;;15.60;78.60;;;;;;5058193;28;20213;-74
2022/04/16 06:34:10;;;;;;;3.25;1.23;;;15.60;78.80;;;;;;5056930;28;20304;-74
2022/04/16 06:36:38;;;;;;;3.97;1.30;;;15.90;77.80;;;;;;5060775;28;20202;-74
2022/04/16 06:39:05;;;;;;;3.38;1.35;;;15.80;78.00;;;;;;5061887;28;20648;-74
2022/04/16 06:41:32;;;;;;;2.95;1.60;;;15.70;78.80;;;;;;5059582;28;20259;-73
2022/04/16 06:44:02;;;;;;;2.60;1.50;;;16.10;78.20;;;;;;5057927;28;20226;-73
2022/04/16 06:46:29;;;;;;;2.57;1.33;;;16.60;76.20;;;;;;5056116;28;20706;-75
2022/04/16 06:48:56;;;;;;;2.95;1.40;;;17.00;75.10;;;;;;5053371;28;20441;-74
2022/04/16 06:51:23;;;;;;;1.70;1.20;;;17.60;74.20;;;;;;5055446;28;20294;-73
2022/04/16 06:53:51;;;;;;;2.87;1.33;;;18.20;71.60;;;;;;5052176;28;20470;-73
2022/04/16 06:56:18;;;;;;;2.33;1.30;;;18.40;70.50;;;;;;5057557;28;20450;-73
2022/04/16 06:58:45;;;;;;;4.07;2.43;;;18.80;68.60;;;;;;5055127;28;20484;-74
2022/04/16 07:01:13;;;;;;;2.23;1.30;;;18.70;67.30;;;;;;5062789;28;20544;-74
2022/04/16 07:03:41;;;;;;;2.57;1.33;;;18.80;68.00;;;;;;5061409;28;20458;-73
2022/04/16 07:06:08;;;;;;;3.20;1.57;;;18.60;67.20;;;;;;5056245;28;20449;-75
2022/04/16 07:08:35;;;;;;;2.57;1.43;;;18.90;66.70;;;;;;5062411;28;20511;-74
2022/04/16 07:11:01;;;;;;;1.87;1.20;;;19.20;65.90;;;;;;5055884;28;20454;-75
2022/04/16 07:13:28;;;;;;;2.00;1.30;;;19.40;64.70;;;;;;5057534;28;20486;-75
2022/04/16 07:15:55;;;;;;;6.47;1.67;;;19.10;65.40;;;;;;5055092;28;20835;-75
2022/04/16 07:18:25;;;;;;;3.80;1.13;;;19.10;65.10;;;;;;5054737;28;20876;-76
2022/04/16 07:20:52;;;;;;;1.90;1.27;;;19.30;64.70;;;;;;5055572;28;20496;-74
2022/04/16 07:23:19;;;;;;;3.07;1.20;;;19.60;63.70;;;;;;5062172;28;20525;-75
2022/04/16 07:25:46;;;;;;;2.73;1.60;;;20.10;62.10;;;;;;5057877;28;20556;-72
2022/04/16 07:28:21;;;;;;;2.20;1.30;;;20.40;62.20;;;;;;5051775;28;20521;-73
2022/04/16 07:30:48;;;;;;;2.23;1.20;;;20.60;61.90;;;;;;5062359;28;20530;-73
2022/04/16 07:33:15;;;;;;;1.80;1.13;;;20.70;60.50;;;;;;5061749;28;20496;-73
2022/04/16 07:35:43;;;;;;;3.63;1.60;;;20.70;59.50;;;;;;5058363;28;20582;-73
2022/04/16 07:38:10;;;;;;;3.07;1.30;;;20.90;59.50;;;;;;5064113;28;20449;-75
2022/04/16 07:40:37;;;;;;;2.40;0.93;;;21.60;57.90;;;;;;5060573;28;20532;-74
2022/04/16 07:43:06;;;;;;;3.00;1.37;;;21.50;57.70;;;;;;5058240;28;20532;-74
2022/04/16 07:45:33;;;;;;;3.00;1.20;;;21.70;57.30;;;;;;5061736;28;20465;-73
2022/04/16 07:48:00;;;;;;;3.53;1.40;;;22.20;56.30;;;;;;5059361;28;20493;-74
2022/04/16 07:50:27;;;;;;;3.30;1.30;;;22.60;56.30;;;;;;5062184;28;20503;-74
2022/04/16 07:52:55;;;;;;;2.13;1.23;;;22.70;53.70;;;;;;5058963;28;20532;-76
2022/04/16 07:55:22;;;;;;;1.60;0.87;;;22.50;53.90;;;;;;5061076;28;20556;-75
2022/04/16 07:57:49;;;;;;;2.00;0.90;;;22.40;52.80;;;;;;5059537;28;20462;-74
2022/04/16 08:00:17;;;;;;;2.23;1.00;;;22.20;53.30;;;;;;5063769;28;20540;-75
2022/04/16 08:02:44;;;;;;;1.80;0.80;;;21.20;53.70;;;;;;5055318;28;20460;-74
2022/04/16 08:05:11;;;;;;;2.30;1.30;;;21.00;54.60;;;;;;5058670;28;20571;-73
2022/04/16 08:07:38;;;;;;;2.60;1.40;;;21.50;54.10;;;;;;5062282;28;20441;-74
2022/04/16 08:10:09;;;;;;;1.97;1.00;;;21.50;53.50;;;;;;5061623;28;20471;-74
2022/04/16 08:12:37;;;;;;;2.27;0.90;;;21.20;53.10;;;;;;5055468;28;20536;-76
2022/04/16 08:15:04;;;;;;;2.03;1.03;;;21.40;52.70;;;;;;5057446;28;20900;-75
2022/04/16 08:17:31;;;;;;;2.40;1.03;;;21.10;53.10;;;;;;5061140;28;20931;-75
2022/04/16 08:19:58;;;;;;;4.23;1.20;;;21.00;54.10;;;;;;5064958;28;20473;-75
2022/04/16 08:22:28;;;;;;;1.83;1.10;;;21.60;53.00;;;;;;5059616;28;20490;-75
2022/04/16 08:25:43;;;;;;;1.20;0.83;;;22.10;51.60;;;;;;5059218;28;20548;-75
2022/04/16 08:27:45;;;;;;;1.67;0.90;;;22.00;50.80;;;;;;5059274;28;20523;-74
2022/04/16 08:30:13;;;;;;;3.77;1.60;;;22.50;49.80;;;;;;5061254;28;20904;-76
2022/04/16 08:32:42;;;;;;;7.37;1.30;;;22.60;49.40;;;;;;5068306;28;20456;-73
2022/04/16 08:35:10;;;;;;;2.03;0.90;;;22.40;49.20;;;;;;5056653;28;20996;-74
2022/04/16 08:37:37;;;;;;;2.17;1.30;;;22.70;48.00;;;;;;5059714;28;20517;-73
2022/04/16 08:40:06;;;;;;;2.00;0.80;;;22.90;47.10;;;;;;5056501;28;20533;-74
2022/04/16 08:42:34;;;;;;;2.40;0.80;;;22.60;47.40;;;;;;5058470;28;20536;-75
2022/04/16 08:45:04;;;;;;;1.07;0.70;;;22.40;47.30;;;;;;5055419;28;20497;-74
2022/04/16 08:47:32;;;;;;;1.50;1.13;;;22.80;47.50;;;;;;5061971;28;20442;-73
2022/04/16 08:50:00;;;;;;;1.40;1.00;;;22.50;47.10;;;;;;5058190;28;20474;-73
2022/04/16 08:52:31;;;;;;;1.70;1.37;;;22.80;47.10;;;;;;5064509;28;20568;-74
2022/04/16 08:54:58;;;;;;;1.67;0.80;;;21.70;47.10;;;;;;5061199;28;20572;-74
2022/04/16 08:57:25;;;;;;;1.77;1.07;;;22.10;46.50;;;;;;5054542;28;20933;-73
2022/04/16 08:59:53;;;;;;;2.10;1.10;;;21.90;46.80;;;;;;5060825;28;20462;-74
2022/04/16 09:02:23;;;;;;;2.50;1.07;;;21.40;47.30;;;;;;5058765;28;20479;-74
2022/04/16 09:05:02;;;;;;;1.83;0.80;;;21.60;45.90;;;;;;5063789;28;20557;-74
2022/04/16 09:07:29;;;;;;;0.90;0.60;;;20.60;45.60;;;;;;5060352;28;20540;-75
2022/04/16 09:10:06;;;;;;;2.60;1.03;;;21.30;46.60;;;;;;5055096;28;20438;-75
2022/04/16 09:12:38;;;;;;;1.50;1.07;;;22.00;46.20;;;;;;5061341;28;20450;-75
2022/04/16 09:15:09;;;;;;;2.00;1.43;;;21.90;45.90;;;;;;5068429;28;20484;-74
2022/04/16 09:17:38;;;;;;;1.20;0.77;;;21.70;46.10;;;;;;5055020;28;20489;-74
2022/04/16 09:20:09;;;;;;;2.50;0.70;;;21.70;45.70;;;;;;5055461;28;20448;-73
2022/04/16 09:22:38;;;;;;;2.60;1.03;;;22.30;45.50;;;;;;5055210;28;20452;-73
2022/04/16 09:25:13;;;;;;;1.57;0.90;;;23.00;45.20;;;;;;5062326;28;20461;-75
2022/04/16 09:27:41;;;;;;;2.70;0.70;;;23.30;44.50;;;;;;5061864;28;20478;-74
2022/04/16 09:30:09;;;;;;;1.20;0.80;;;23.60;44.40;;;;;;5061571;28;20453;-75
2022/04/16 09:32:45;;;;;;;1.63;0.80;;;23.10;44.90;;;;;;5067225;28;20446;-74
2022/04/16 09:35:26;;;;;;;2.93;1.10;;;23.40;43.20;;;;;;5077313;28;20563;-74
2022/04/16 09:37:56;;;;;;;1.10;0.80;;;22.50;43.60;;;;;;5076027;28;20432;-75
2022/04/16 09:40:25;;;;;;;1.47;0.70;;;22.20;43.60;;;;;;5054766;28;20442;-74
2022/04/16 09:42:54;;;;;;;2.50;0.80;;;22.00;43.80;;;;;;5058399;28;20527;-73
2022/04/16 09:45:21;;;;;;;2.30;1.10;;;21.70;44.20;;;;;;5056275;28;20504;-75
2022/04/16 09:47:52;;;;;;;1.97;0.90;;;21.00;45.40;;;;;;5053744;28;20446;-75
2022/04/16 09:50:20;;;;;;;1.43;1.10;;;21.20;45.90;;;;;;5054846;28;20465;-75
2022/04/16 09:52:52;;;;;;;2.57;0.87;;;21.90;44.80;;;;;;5059482;28;20456;-74
2022/04/16 09:55:21;;;;;;;2.47;0.93;;;22.40;43.50;;;;;;5057371;28;20489;-74
2022/04/16 09:57:57;;;;;;;4.40;0.90;;;22.00;42.70;;;;;;5055458;28;20468;-73
2022/04/16 10:00:25;;;;;;;4.83;1.37;;;20.90;42.90;;;;;;5058100;28;20504;-75
2022/04/16 10:02:54;;;;;;;1.30;0.80;;;20.20;43.80;;;;;;5061363;28;20492;-77
2022/04/16 10:05:22;;;;;;;1.30;0.67;;;20.40;44.50;;;;;;5059892;28;20469;-74
2022/04/16 10:07:50;;;;;;;1.00;0.60;;;20.70;41.90;;;;;;5059179;28;20484;-74
2022/04/16 10:10:25;;;;;;;10.73;1.10;;;20.70;41.40;;;;;;5053298;28;20440;-76
2022/04/16 10:13:07;;;;;;;2.30;1.00;;;20.50;41.90;;;;;;5054178;28;21013;-74
2022/04/16 10:15:57;;;;;;;1.53;0.60;;;20.10;41.30;;;;;;5057714;28;20497;-75
2022/04/16 10:18:27;;;;;;;1.13;0.80;;;19.70;41.80;;;;;;5044553;28;20451;-74
2022/04/16 10:20:55;;;;;;;1.53;0.90;;;20.00;42.10;;;;;;5058985;28;20572;-73
2022/04/16 10:23:30;;;;;;;1.70;0.70;;;20.30;41.60;;;;;;5051808;28;20452;-73
2022/04/16 10:26:09;;;;;;;2.13;0.93;;;19.80;41.40;;;;;;5056196;28;20496;-74
2022/04/16 10:28:40;;;;;;;1.93;0.80;;;19.40;42.70;;;;;;5052611;28;20476;-73
2022/04/16 10:31:19;;;;;;;1.23;1.00;;;19.00;43.70;;;;;;5054937;28;20878;-73
2022/04/16 10:33:58;;;;;;;3.70;0.80;;;19.10;43.40;;;;;;5057718;28;20442;-75
2022/04/16 10:36:32;;;;;;;1.00;0.70;;;19.50;43.70;;;;;;5047302;28;20788;-74
2022/04/16 10:38:59;;;;;;;2.40;0.90;;;19.20;42.30;;;;;;5054074;28;20893;-74
2022/04/16 10:41:28;;;;;;;1.73;0.70;;;18.50;43.10;;;;;;5052048;28;20529;-73
2022/04/16 10:43:59;;;;;;;4.67;0.80;;;17.80;43.80;;;;;;5060627;28;20444;-74
2022/04/16 10:46:39;;;;;;;1.00;0.80;;;17.20;45.00;;;;;;5059454;28;20536;-74
2022/04/16 10:49:11;;;;;;;1.17;0.90;;;17.10;45.40;;;;;;5059070;28;20287;-74
2022/04/16 10:51:38;;;;;;;2.65;1.75;;;16.80;47.00;;;;;;5053338;28;20619;-73
2022/04/16 10:54:09;;;;;;;2.17;1.05;;;16.50;47.10;;;;;;5054778;28;20231;-74
2022/04/16 10:56:39;;;;;;;2.72;1.10;;;16.10;47.50;;;;;;5055455;28;20291;-74
2022/04/16 10:59:07;;;;;;;4.07;2.45;;;16.10;47.50;;;;;;5061763;28;20238;-73
2022/04/16 11:01:34;;;;;;;2.03;1.10;;;16.00;48.00;;;;;;5053909;28;20299;-73
2022/04/16 11:04:14;;;;;;;1.40;1.20;;;16.00;48.00;;;;;;5051675;28;20231;-74
2022/04/16 11:06:45;;;;;;;5.43;2.63;;;15.70;47.90;;;;;;5054240;28;20288;-75
2022/04/16 11:09:13;;;;;;;7.15;3.70;;;15.70;49.20;;;;;;5060668;28;20646;-74
2022/04/16 11:11:41;;;;;;;1.30;1.00;;;15.90;51.40;;;;;;5054754;28;20255;-75
2022/04/16 11:14:10;;;;;;;5.95;1.30;;;16.00;49.50;;;;;;5055472;28;20256;-74
2022/04/16 11:16:44;;;;;;;2.83;1.90;;;16.00;50.10;;;;;;5059858;28;20204;-73
2022/04/16 11:19:15;;;;;;;1.00;0.80;;;16.20;50.30;;;;;;5055954;28;20207;-75
2022/04/16 11:21:43;;;;;;;2.90;1.10;;;16.40;49.70;;;;;;5051954;28;20205;-74
2022/04/16 11:24:10;;;;;;;2.60;1.00;;;16.00;47.90;;;;;;5057274;28;20285;-74
2022/04/16 11:34:56;;;;;;;1.35;0.80;;;15.50;50.00;;;;;;5034956;28;20268;-73
2022/04/16 11:37:24;;;;;;;1.98;0.90;;;15.70;49.70;;;;;;5057902;28;20652;-75
2022/04/16 11:39:59;;;;;;;0.93;0.60;;;15.70;49.40;;;;;;5056607;28;20234;-74
2022/04/16 11:42:27;;;;;;;1.00;0.70;;;15.50;49.20;;;;;;5051707;28;20289;-73
2022/04/16 11:44:54;;;;;;;0.90;0.75;;;15.40;50.70;;;;;;5056309;28;20232;-74
2022/04/16 11:47:23;;;;;;;3.00;0.90;;;15.60;50.60;;;;;;5057487;28;20793;-74
2022/04/16 11:49:51;;;;;;;1.95;0.70;;;15.50;50.00;;;;;;5054587;28;20246;-74
2022/04/16 11:52:25;;;;;;;1.70;1.50;;;15.30;49.40;;;;;;5053929;28;20708;-74
2022/04/16 11:55:01;;;;;;;1.55;1.05;;;15.10;50.10;;;;;;5052039;28;20234;-74
2022/04/16 11:57:28;;;;;;;1.35;0.98;;;15.20;50.40;;;;;;5044402;28;20200;-74
2022/04/16 11:59:58;;;;;;;1.30;0.80;;;15.30;50.90;;;;;;5059282;28;20244;-75
2022/04/16 12:02:32;;;;;;;1.50;1.00;;;15.30;50.20;;;;;;5054486;28;20261;-74
2022/04/16 12:05:09;;;;;;;1.35;0.85;;;15.10;50.00;;;;;;5050129;28;20221;-74
2022/04/16 12:07:40;;;;;;;1.30;1.13;;;15.10;50.40;;;;;;5054791;28;20208;-74
2022/04/16 12:10:08;;;;;;;1.10;0.90;;;15.20;52.40;;;;;;5059236;28;20234;-74
2022/04/16 12:12:44;;;;;;;2.75;1.50;;;15.20;50.70;;;;;;5051226;28;20370;-74
2022/04/16 12:15:11;;;;;;;2.50;1.42;;;15.20;50.00;;;;;;5049277;28;20219;-74
2022/04/16 12:17:41;;;;;;;4.03;2.38;;;15.10;49.40;;;;;;5060620;28;20203;-73
2022/04/16 12:20:10;;;;;;;4.20;0.98;;;15.20;49.20;;;;;;5053392;28;20203;-73
2022/04/16 12:22:49;;;;;;;1.30;0.90;;;14.90;48.90;;;;;;5055787;28;20254;-74
2022/04/16 12:25:18;;;;;;;1.42;1.10;;;15.00;49.80;;;;;;5061897;28;20242;-73
2022/04/16 12:27:47;;;;;;;1.92;1.00;;;15.00;49.90;;;;;;5056175;28;20287;-74
2022/04/16 12:30:15;;;;;;;1.40;0.90;;;15.20;50.40;;;;;;5061396;28;20290;-73
2022/04/16 12:32:43;;;;;;;1.90;0.85;;;15.30;49.80;;;;;;5057288;28;20660;-73
2022/04/16 12:35:10;;;;;;;2.78;1.35;;;15.30;49.10;;;;;;5054004;28;20219;-74
2022/04/16 12:37:37;;;;;;;1.23;0.80;;;15.40;49.20;;;;;;5060570;28;20231;-74
2022/04/16 12:40:08;;;;;;;1.40;0.90;;;15.40;48.20;;;;;;5056549;28;20241;-74
2022/04/16 12:42:35;;;;;;;2.20;0.80;;;15.30;47.10;;;;;;5062242;28;20293;-74
2022/04/16 12:45:02;;;;;;;1.55;1.15;;;15.10;46.70;;;;;;5057173;28;20230;-73
2022/04/16 12:47:29;;;;;;;1.52;1.00;;;15.10;47.50;;;;;;5058925;28;20196;-74
2022/04/16 12:49:56;;;;;;;1.70;0.75;;;15.10;47.90;;;;;;5056178;28;20287;-74
2022/04/16 12:52:24;;;;;;;1.35;1.10;;;15.10;47.90;;;;;;5054089;28;20235;-74
2022/04/16 12:54:51;;;;;;;1.58;0.85;;;15.00;48.20;;;;;;5057893;28;20227;-74
2022/04/16 12:57:20;;;;;;;0.90;0.70;;;15.00;47.50;;;;;;5055965;28;20230;-73
2022/04/16 12:59:47;;;;;;;2.00;1.05;;;15.00;47.50;;;;;;5058547;28;20207;-74
2022/04/16 13:02:14;;;;;;;1.85;0.80;;;15.00;47.60;;;;;;5054662;28;20220;-73
2022/04/16 13:04:41;;;;;;;2.20;1.10;;;15.30;48.00;;;;;;5060011;28;20266;-73
2022/04/16 13:07:08;;;;;;;1.65;1.08;;;15.20;48.00;;;;;;5053545;28;20282;-73
2022/04/16 13:09:35;;;;;;;0.80;0.57;;;15.10;48.50;;;;;;5054227;28;20291;-75
2022/04/16 13:12:02;;;;;;;1.80;0.90;;;15.00;49.10;;;;;;5056318;28;20203;-75
2022/04/16 13:14:30;;;;;;;1.27;1.00;;;15.00;48.80;;;;;;5055130;28;20224;-74